Time;durP1;ratioP1;P1;durP2;ratioP2;P2;SDS_P1;SDS_P2;PMS_P1;PMS_P2;Temp;Humidity;BMP_temperature;BMP_pressure;BME280_temperature;BME280_humidity;BME280_pressure;Samples;Min_cycle;Max_cycle;Signal;HPM_P1;HPM_P2
2024/02/26 00:02:14;;;;;;;3.40;2.78;;;;;;;6.44;64.47;96591.75;5029867;28;20073;-76
2024/02/26 00:04:39;;;;;;;2.97;2.67;;;;;;;6.29;64.85;96576.41;4993127;28;20029;-74
2024/02/26 00:07:04;;;;;;;3.47;3.10;;;;;;;6.23;64.05;96569.44;5015100;28;20049;-74
2024/02/26 00:09:30;;;;;;;3.17;2.88;;;;;;;6.18;64.41;96578.19;5015467;28;20076;-74
2024/02/26 00:11:55;;;;;;;2.92;2.63;;;;;;;6.26;64.77;96585.75;5007988;28;20424;-74
2024/02/26 00:14:21;;;;;;;5.05;2.67;;;;;;;6.30;64.82;96586.06;5014738;28;20034;-74
2024/02/26 00:16:46;;;;;;;3.22;2.60;;;;;;;6.26;64.88;96579.59;5029060;28;20507;-74
2024/02/26 00:19:11;;;;;;;4.28;2.80;;;;;;;6.31;64.43;96582.28;5045241;28;20037;-73
2024/02/26 00:21:42;;;;;;;4.70;3.28;;;;;;;6.24;64.66;96571.84;5026767;28;20034;-74
2024/02/26 00:24:08;;;;;;;6.60;2.95;;;;;;;6.16;65.06;96558.16;5025046;28;20120;-74
2024/02/26 00:26:33;;;;;;;3.55;2.83;;;;;;;6.29;65.39;96576.41;5005709;28;20032;-74
2024/02/26 00:28:58;;;;;;;4.97;3.20;;;;;;;6.23;64.34;96558.72;5026805;28;20500;-74
2024/02/26 00:31:24;;;;;;;3.40;3.10;;;;;;;6.19;65.14;96562.97;5026289;28;20112;-74
2024/02/26 00:33:49;;;;;;;3.75;3.10;;;;;;;6.19;65.24;96560.28;5007578;28;20037;-74
2024/02/26 00:36:15;;;;;;;3.30;3.00;;;;;;;6.20;64.65;96560.06;5027883;28;20134;-74
2024/02/26 00:38:40;;;;;;;3.78;3.10;;;;;;;6.10;65.76;96549.28;5024431;28;20060;-74
2024/02/26 00:41:06;;;;;;;3.28;2.92;;;;;;;6.23;66.13;96574.78;5014627;28;20028;-74
2024/02/26 00:43:31;;;;;;;3.40;2.85;;;;;;;6.14;65.07;96570.94;5012643;28;20401;-74
2024/02/26 00:45:56;;;;;;;5.00;3.53;;;;;;;6.06;66.00;96558.88;5021092;28;20124;-74
2024/02/26 00:48:22;;;;;;;3.38;3.08;;;;;;;6.19;66.10;96568.31;5021811;28;20045;-74
2024/02/26 00:50:47;;;;;;;3.40;3.10;;;;;;;6.06;66.57;96550.03;5027740;28;20029;-74
2024/02/26 00:53:13;;;;;;;3.17;2.88;;;;;;;6.10;66.39;96553.81;5014859;28;20034;-74
2024/02/26 00:55:38;;;;;;;3.72;3.28;;;;;;;6.03;66.53;96540.69;5011452;28;20021;-74
2024/02/26 00:58:04;;;;;;;4.55;3.60;;;;;;;6.06;66.35;96547.38;5004497;28;20548;-76
2024/02/26 01:00:29;;;;;;;3.63;3.05;;;;;;;6.19;66.65;96562.97;5011161;28;20120;-75
2024/02/26 01:02:54;;;;;;;4.38;3.78;;;;;;;6.19;66.53;96538.91;5012162;28;20041;-75
2024/02/26 01:05:20;;;;;;;4.30;3.85;;;;;;;6.20;66.59;96545.88;4995245;28;20030;-75
2024/02/26 01:07:45;;;;;;;3.80;3.40;;;;;;;6.07;66.24;96522.25;5003024;28;20038;-75
2024/02/26 01:10:11;;;;;;;4.18;3.78;;;;;;;6.30;67.27;96553.97;5021963;28;20033;-75
2024/02/26 01:12:36;;;;;;;3.85;3.45;;;;;;;6.31;66.33;96544.06;4991128;28;20103;-75
2024/02/26 01:15:05;;;;;;;6.00;3.85;;;;;;;6.18;66.01;96529.28;4996712;28;20153;-74
2024/02/26 01:17:30;;;;;;;5.38;3.65;;;;;;;6.30;66.79;96542.47;5021950;28;20052;-73
2024/02/26 01:19:56;;;;;;;4.50;3.80;;;;;;;6.19;66.49;96536.22;5010493;28;20022;-74
2024/02/26 01:22:22;;;;;;;4.22;3.83;;;;;;;6.23;66.63;96537.34;5005002;28;20048;-74
2024/02/26 01:24:48;;;;;;;4.40;3.85;;;;;;;6.26;66.07;96539.50;5004674;28;20096;-73
2024/02/26 01:27:15;;;;;;;4.75;3.67;;;;;;;6.36;66.86;96547.59;5011082;28;20046;-73
2024/02/26 01:29:41;;;;;;;3.60;3.30;;;;;;;6.12;66.62;96522.28;5006643;28;20109;-73
2024/02/26 01:32:06;;;;;;;4.10;3.70;;;;;;;6.31;65.74;96550.22;5010997;28;20072;-73
2024/02/26 01:34:31;;;;;;;4.22;3.67;;;;;;;6.34;66.14;96549.72;5020583;28;20065;-73
2024/02/26 01:36:57;;;;;;;4.20;3.75;;;;;;;6.39;65.59;96552.41;5014698;28;20406;-74
2024/02/26 01:39:22;;;;;;;4.57;3.80;;;;;;;6.28;65.98;96533.91;5020540;28;20025;-73
2024/02/26 01:41:48;;;;;;;4.07;3.72;;;;;;;6.37;66.56;96548.41;5017107;28;20041;-73
2024/02/26 01:44:13;;;;;;;6.63;3.85;;;;;;;6.33;66.19;96531.22;5019066;28;20146;-75
2024/02/26 01:46:39;;;;;;;4.18;3.63;;;;;;;6.39;65.79;96547.06;4994260;28;20033;-75
2024/02/26 01:49:04;;;;;;;4.25;3.60;;;;;;;6.30;66.37;96537.94;5011145;28;20028;-74
2024/02/26 01:51:31;;;;;;;5.35;3.47;;;;;;;6.41;65.48;96552.97;5008753;28;20038;-75
2024/02/26 01:53:57;;;;;;;4.20;3.80;;;;;;;6.42;65.88;96551.88;5023633;28;20040;-74
2024/02/26 01:56:28;;;;;;;4.30;3.90;;;;;;;6.40;65.56;96551.34;5017100;28;20508;-75
2024/02/26 01:58:53;;;;;;;5.35;4.10;;;;;;;6.25;65.89;96545.91;5015578;28;20045;-74
2024/02/26 02:01:19;;;;;;;5.65;4.65;;;;;;;6.21;66.37;96528.75;4995396;28;20030;-74
2024/02/26 02:03:45;;;;;;;4.43;3.92;;;;;;;6.22;65.92;96541.06;4997629;28;20042;-74
2024/02/26 02:06:10;;;;;;;4.80;4.30;;;;;;;6.22;66.57;96541.06;4997626;28;20029;-74
2024/02/26 02:08:36;;;;;;;4.65;4.25;;;;;;;6.25;66.16;96545.91;5022014;28;20504;-74
2024/02/26 02:11:01;;;;;;;4.55;4.10;;;;;;;6.28;65.80;96544.59;5004484;28;20014;-74
2024/02/26 02:13:27;;;;;;;6.70;4.65;;;;;;;6.16;66.29;96529.53;5008229;28;20046;-74
2024/02/26 02:15:52;;;;;;;5.30;4.30;;;;;;;6.26;66.35;96552.84;5013091;28;20021;-74
2024/02/26 02:18:19;;;;;;;4.63;4.03;;;;;;;6.22;66.03;96546.41;5001596;28;20516;-74
2024/02/26 02:20:44;;;;;;;4.93;4.20;;;;;;;6.09;66.74;96536.19;5018829;28;20080;-75
2024/02/26 02:23:09;;;;;;;5.13;4.50;;;;;;;6.17;66.71;96549.06;5007769;28;20500;-74
2024/02/26 02:25:35;;;;;;;4.70;4.18;;;;;;;6.12;67.06;96541.00;5026064;28;20032;-75
2024/02/26 02:28:00;;;;;;;4.88;4.10;;;;;;;6.21;66.64;96550.13;5026083;28;20068;-74
2024/02/26 02:30:28;;;;;;;4.85;4.30;;;;;;;6.17;66.31;96522.31;5026215;28;20092;-74
2024/02/26 02:32:53;;;;;;;5.18;4.40;;;;;;;6.28;66.73;96546.19;5018810;28;20076;-74
2024/02/26 02:35:19;;;;;;;5.20;4.53;;;;;;;6.23;66.47;96532.00;5021243;28;20104;-74
2024/02/26 02:37:44;;;;;;;5.15;4.38;;;;;;;6.33;66.57;96542.75;5010962;28;20050;-73
2024/02/26 02:40:10;;;;;;;5.28;4.28;;;;;;;6.18;66.64;96531.97;5017596;28;20021;-74
2024/02/26 02:42:35;;;;;;;5.00;4.30;;;;;;;6.18;66.37;96530.06;5011880;28;20042;-74
2024/02/26 02:45:00;;;;;;;5.55;4.72;;;;;;;6.28;67.24;96545.38;5022383;28;20037;-74
2024/02/26 02:47:26;;;;;;;6.35;4.68;;;;;;;6.22;66.66;96538.41;5023411;28;20111;-75
2024/02/26 02:49:51;;;;;;;6.32;5.07;;;;;;;6.13;66.84;96553.31;5014607;28;20021;-74
2024/02/26 02:52:17;;;;;;;5.43;4.80;;;;;;;6.28;66.58;96553.41;4997767;28;20038;-74
2024/02/26 02:54:42;;;;;;;5.65;4.38;;;;;;;6.24;66.61;96547.78;5029893;28;20026;-76
2024/02/26 02:57:08;;;;;;;6.57;4.97;;;;;;;6.33;66.71;96558.78;5004059;28;20072;-76
2024/02/26 02:59:33;;;;;;;6.30;4.32;;;;;;;6.22;66.80;96535.72;5022612;28;20473;-75
2024/02/26 03:01:59;;;;;;;6.65;5.25;;;;;;;6.20;66.70;96543.19;4999158;28;20033;-75
2024/02/26 03:04:24;;;;;;;5.57;4.97;;;;;;;6.26;66.09;96552.84;5025141;28;20051;-75
2024/02/26 03:06:50;;;;;;;5.18;4.68;;;;;;;6.19;67.10;96546.91;4994998;28;20034;-74
2024/02/26 03:09:15;;;;;;;5.50;5.00;;;;;;;6.28;66.87;96553.41;5008086;28;20022;-74
2024/02/26 03:11:40;;;;;;;5.97;4.85;;;;;;;6.25;66.83;96553.94;5017030;28;20108;-74
2024/02/26 03:14:06;;;;;;;5.85;5.13;;;;;;;6.12;66.54;96524.97;5001087;28;20090;-74
2024/02/26 03:16:32;;;;;;;5.72;4.72;;;;;;;6.34;66.27;96560.41;5000702;28;20039;-74
2024/02/26 03:18:57;;;;;;;5.97;4.75;;;;;;;6.18;66.38;96537.31;5016124;28;20057;-73
2024/02/26 03:21:22;;;;;;;6.10;4.53;;;;;;;6.24;66.86;96545.09;5026586;28;20045;-73
2024/02/26 03:23:48;;;;;;;6.25;5.22;;;;;;;6.35;66.32;96556.66;5023780;28;20033;-73
2024/02/26 03:26:16;;;;;;;5.40;4.82;;;;;;;6.24;66.65;96550.44;5017124;28;20390;-75
2024/02/26 03:28:42;;;;;;;4.88;4.38;;;;;;;6.28;65.88;96550.72;5012945;28;20021;-75
2024/02/26 03:31:07;;;;;;;5.28;4.55;;;;;;;6.22;65.75;96552.56;5014145;28;20566;-74
2024/02/26 03:33:32;;;;;;;5.40;4.55;;;;;;;6.17;66.11;96538.34;5026223;28;20490;-76
2024/02/26 03:35:58;;;;;;;5.90;4.85;;;;;;;6.23;65.95;96546.16;5007179;28;20042;-75
2024/02/26 03:38:23;;;;;;;5.93;5.10;;;;;;;6.10;65.94;96524.41;5027959;28;20025;-75
2024/02/26 03:40:48;;;;;;;5.60;4.88;;;;;;;6.20;66.35;96543.19;5010761;28;20045;-75
2024/02/26 03:43:14;;;;;;;5.03;4.53;;;;;;;6.23;66.89;96542.69;5018752;28;20087;-76
2024/02/26 03:45:39;;;;;;;5.05;4.55;;;;;;;6.13;66.65;96521.25;4984099;28;20120;-76
2024/02/26 03:48:05;;;;;;;5.32;4.82;;;;;;;6.18;66.30;96531.97;4999372;28;20029;-76
2024/02/26 03:50:31;;;;;;;5.47;4.55;;;;;;;6.18;66.81;96529.28;5027612;28;20117;-75
2024/02/26 03:52:57;;;;;;;5.80;5.20;;;;;;;6.23;67.05;96515.97;5024013;28;20029;-75
2024/02/26 03:55:24;;;;;;;6.07;5.03;;;;;;;6.15;67.08;96519.09;5019633;28;20042;-75
2024/02/26 03:57:51;;;;;;;5.68;4.97;;;;;;;6.28;66.59;96534.69;5005834;28;20053;-75
2024/02/26 04:00:16;;;;;;;6.82;5.93;;;;;;;6.21;66.21;96526.91;5007277;28;20045;-76
2024/02/26 04:02:41;;;;;;;6.18;5.35;;;;;;;6.27;66.84;96527.75;5018301;28;20026;-76
2024/02/26 04:05:11;;;;;;;6.95;6.00;;;;;;;6.33;66.79;96531.22;5019914;28;20049;-75
2024/02/26 04:07:36;;;;;;;7.55;6.68;;;;;;;6.31;66.22;96528.84;5027003;28;20108;-75
2024/02/26 04:10:04;;;;;;;8.30;7.45;;;;;;;6.39;66.11;96541.72;5000681;28;20116;-75
2024/02/26 04:12:30;;;;;;;6.45;5.38;;;;;;;6.39;65.98;96541.72;5000065;28;20124;-75
2024/02/26 04:14:55;;;;;;;6.03;5.40;;;;;;;6.41;66.66;96542.28;5006616;28;20074;-75
2024/02/26 04:17:21;;;;;;;5.97;5.32;;;;;;;6.26;66.34;96520.78;5025420;28;20097;-74
2024/02/26 04:19:46;;;;;;;7.30;4.82;;;;;;;6.25;66.17;96513.84;5029037;28;20481;-74
2024/02/26 04:22:11;;;;;;;6.35;4.85;;;;;;;6.18;66.64;96507.91;5014278;28;20025;-74
2024/02/26 04:24:37;;;;;;;6.88;5.10;;;;;;;6.31;65.86;96528.03;4999230;28;20044;-75
2024/02/26 04:27:02;;;;;;;6.47;5.43;;;;;;;6.32;66.35;96525.09;5014962;28;20028;-75
2024/02/26 04:29:27;;;;;;;6.65;5.32;;;;;;;6.41;66.17;96544.94;4996055;28;20087;-75
2024/02/26 04:31:53;;;;;;;5.85;5.20;;;;;;;6.29;66.28;96530.97;4997396;28;20025;-74
2024/02/26 04:34:18;;;;;;;6.45;4.95;;;;;;;6.31;66.46;96544.88;5026566;28;20029;-75
2024/02/26 04:36:43;;;;;;;5.28;4.78;;;;;;;6.25;66.44;96543.25;5001182;28;20059;-74
2024/02/26 04:39:10;;;;;;;5.10;4.65;;;;;;;6.22;66.58;96541.88;5009920;28;20038;-74
2024/02/26 04:41:35;;;;;;;7.30;4.93;;;;;;;6.35;66.38;96556.66;5012176;28;20026;-74
2024/02/26 04:44:01;;;;;;;5.18;4.68;;;;;;;6.32;66.67;96556.38;5024174;28;20048;-75
2024/02/26 04:46:28;;;;;;;6.22;5.07;;;;;;;6.38;66.70;96566.84;4994862;28;20552;-74
2024/02/26 04:48:53;;;;;;;6.30;5.18;;;;;;;6.38;65.84;96560.69;5022128;28;20087;-74
2024/02/26 04:51:19;;;;;;;5.72;5.20;;;;;;;6.18;66.43;96537.31;5012191;28;20026;-74
2024/02/26 04:53:44;;;;;;;7.88;4.95;;;;;;;6.28;66.95;96547.28;5022341;28;20034;-74
2024/02/26 04:56:09;;;;;;;6.13;5.50;;;;;;;6.38;66.73;96556.16;4998704;28;20026;-74
2024/02/26 04:58:35;;;;;;;6.18;5.10;;;;;;;6.39;66.35;96563.13;5013306;28;20450;-74
2024/02/26 05:01:00;;;;;;;6.55;5.35;;;;;;;6.33;66.26;96540.06;5019928;28;20508;-74
2024/02/26 05:03:26;;;;;;;5.75;4.72;;;;;;;6.46;66.14;96561.03;5015354;28;20045;-75
2024/02/26 05:05:51;;;;;;;5.55;4.90;;;;;;;6.40;66.28;96546.00;5004471;28;20101;-74
2024/02/26 05:08:16;;;;;;;5.97;4.90;;;;;;;6.39;66.35;96531.03;5025810;28;20457;-74
2024/02/26 05:10:43;;;;;;;5.82;5.25;;;;;;;6.47;65.74;96546.56;5016155;28;20018;-74
2024/02/26 05:13:08;;;;;;;6.13;5.53;;;;;;;6.59;66.66;96557.88;4990692;28;20037;-74
2024/02/26 05:15:34;;;;;;;5.97;5.30;;;;;;;6.55;66.17;96551.44;5003309;28;20109;-74
2024/02/26 05:18:00;;;;;;;8.45;5.00;;;;;;;6.64;65.66;96555.25;5029520;28;20033;-74
2024/02/26 05:20:25;;;;;;;6.03;5.43;;;;;;;6.46;66.20;96520.09;5027291;28;20034;-74
2024/02/26 05:22:51;;;;;;;5.85;5.22;;;;;;;6.63;66.55;96553.63;5011519;28;20327;-74
2024/02/26 05:25:17;;;;;;;7.97;5.80;;;;;;;6.66;65.47;96561.13;5006495;28;20036;-74
2024/02/26 05:27:43;;;;;;;6.53;5.93;;;;;;;6.60;66.71;96570.19;4993157;28;20129;-75
2024/02/26 05:30:09;;;;;;;7.38;6.07;;;;;;;6.52;66.35;96551.94;4996111;28;20045;-75
2024/02/26 05:32:35;;;;;;;6.65;5.75;;;;;;;6.61;66.74;96574.47;5017275;28;20037;-75
2024/02/26 05:35:00;;;;;;;6.15;5.45;;;;;;;6.49;66.55;96555.13;5014982;28;20022;-75
2024/02/26 05:37:26;;;;;;;8.90;6.40;;;;;;;6.53;67.65;96564.28;5026213;28;20093;-75
2024/02/26 05:39:52;;;;;;;7.57;6.28;;;;;;;6.45;66.33;96566.59;5010987;28;20032;-75
2024/02/26 05:42:17;;;;;;;7.10;6.25;;;;;;;6.37;67.12;96553.75;5010419;28;20606;-74
2024/02/26 05:44:42;;;;;;;6.85;6.10;;;;;;;6.49;66.96;96568.50;5018576;28;20112;-73
2024/02/26 05:47:08;;;;;;;6.43;5.72;;;;;;;6.47;66.63;96570.63;5012370;28;20033;-74
2024/02/26 05:49:34;;;;;;;7.45;6.22;;;;;;;6.43;67.50;96574.91;4987196;28;20018;-73
2024/02/26 05:52:00;;;;;;;6.72;5.90;;;;;;;6.32;67.60;96557.19;5017526;28;20500;-74
2024/02/26 05:54:25;;;;;;;7.05;5.80;;;;;;;6.36;67.67;96552.94;5007489;28;20018;-74
2024/02/26 05:56:50;;;;;;;6.38;5.75;;;;;;;6.45;68.06;96574.63;5006419;28;20108;-74
2024/02/26 05:59:16;;;;;;;6.95;6.25;;;;;;;6.36;67.20;96558.28;5018635;28;20477;-74
2024/02/26 06:01:41;;;;;;;7.18;5.88;;;;;;;6.44;67.95;96571.16;5022770;28;20576;-74
2024/02/26 06:04:07;;;;;;;7.20;5.90;;;;;;;6.36;67.89;96557.47;4999074;28;20041;-75
2024/02/26 06:06:32;;;;;;;7.32;6.63;;;;;;;6.48;67.21;96572.25;5007609;28;20540;-74
2024/02/26 06:08:57;;;;;;;9.82;6.93;;;;;;;6.47;68.06;96580.53;5008002;28;20032;-76
2024/02/26 06:11:23;;;;;;;7.65;6.50;;;;;;;6.46;67.41;96570.91;5012302;28;20026;-76
2024/02/26 06:13:48;;;;;;;7.13;6.10;;;;;;;6.52;67.58;96589.41;5014052;28;20469;-76
2024/02/26 06:16:14;;;;;;;7.60;6.60;;;;;;;6.41;66.96;96571.69;5026640;28;20121;-75
2024/02/26 06:18:39;;;;;;;7.40;6.22;;;;;;;6.41;67.62;96577.03;5022235;28;20048;-75
2024/02/26 06:21:04;;;;;;;8.38;6.50;;;;;;;6.51;67.90;96586.97;4995967;28;20375;-75
2024/02/26 06:23:30;;;;;;;7.25;6.47;;;;;;;6.42;66.90;96578.63;5019656;28;20508;-75
2024/02/26 06:25:55;;;;;;;8.60;6.22;;;;;;;6.32;67.60;96557.19;5003373;28;20038;-75
2024/02/26 06:28:20;;;;;;;7.05;6.35;;;;;;;6.46;67.87;96578.94;5020000;28;20026;-75
2024/02/26 06:30:46;;;;;;;7.65;6.75;;;;;;;6.51;67.02;96577.06;5029086;28;20025;-75
2024/02/26 06:33:12;;;;;;;8.15;7.28;;;;;;;6.50;67.22;96578.16;5014461;28;20037;-75
2024/02/26 06:35:38;;;;;;;8.32;6.70;;;;;;;6.49;67.68;96584.56;4999225;28;20505;-75
2024/02/26 06:38:04;;;;;;;8.02;6.78;;;;;;;6.56;67.32;96603.06;5009232;28;20084;-75
2024/02/26 06:40:29;;;;;;;7.57;6.75;;;;;;;6.43;68.09;96582.91;5024790;28;20034;-74
2024/02/26 06:42:55;;;;;;;7.20;6.50;;;;;;;6.59;67.62;96616.72;5018568;28;20084;-75
2024/02/26 06:45:20;;;;;;;8.50;7.28;;;;;;;6.50;67.67;96594.19;5006478;28;20037;-76
2024/02/26 06:47:45;;;;;;;8.85;7.47;;;;;;;6.43;67.96;96598.97;5003254;28;20022;-76
2024/02/26 06:50:14;;;;;;;10.02;7.68;;;;;;;6.42;67.14;96600.00;5027347;28;20037;-75
2024/02/26 06:52:40;;;;;;;9.57;7.35;;;;;;;6.56;67.43;96629.81;5025319;28;20053;-74
2024/02/26 06:55:08;;;;;;;8.27;7.32;;;;;;;6.58;68.57;96633.81;5015160;28;20125;-75
2024/02/26 06:57:33;;;;;;;8.88;7.22;;;;;;;6.58;67.82;96636.50;5000842;28;20029;-74
2024/02/26 06:59:59;;;;;;;8.93;7.63;;;;;;;6.51;67.63;96635.91;5004582;28;20061;-74
2024/02/26 07:02:25;;;;;;;7.38;6.68;;;;;;;6.50;68.17;96636.97;5018880;28;20088;-74
2024/02/26 07:04:51;;;;;;;8.63;7.18;;;;;;;6.54;67.90;96651.44;5002653;28;20045;-74
2024/02/26 07:07:17;;;;;;;7.82;7.10;;;;;;;6.45;69.05;96636.13;5014293;28;20466;-75
2024/02/26 07:09:43;;;;;;;8.75;7.85;;;;;;;6.45;67.92;96642.28;5021942;28;20033;-76
2024/02/26 07:12:09;;;;;;;9.65;7.72;;;;;;;6.53;68.23;96644.50;5026647;28;20400;-76
2024/02/26 07:14:34;;;;;;;8.60;7.68;;;;;;;6.63;68.55;96655.25;5024270;28;20493;-76
2024/02/26 07:16:59;;;;;;;8.20;7.40;;;;;;;6.41;67.52;96630.50;5013779;28;20470;-75
2024/02/26 07:19:25;;;;;;;8.23;7.43;;;;;;;6.50;68.56;96649.53;5007227;28;20045;-76
2024/02/26 07:21:50;;;;;;;8.23;7.40;;;;;;;6.61;67.40;96662.72;5029647;28;20021;-76
2024/02/26 07:24:16;;;;;;;7.82;6.97;;;;;;;6.55;68.11;96653.06;5008801;28;20037;-75
2024/02/26 07:26:41;;;;;;;8.57;7.43;;;;;;;6.65;67.60;96669.16;5001528;28;20026;-76
2024/02/26 07:29:06;;;;;;;8.30;6.97;;;;;;;6.57;67.90;96653.63;4996912;28;20079;-76
2024/02/26 07:31:32;;;;;;;8.57;7.75;;;;;;;6.46;67.88;96643.91;5017141;28;20018;-76
2024/02/26 07:33:57;;;;;;;10.73;8.73;;;;;;;6.59;68.44;96672.06;5026272;28;20049;-76
2024/02/26 07:36:23;;;;;;;9.65;8.20;;;;;;;6.69;67.38;96683.66;5019442;28;20109;-75
2024/02/26 07:38:48;;;;;;;9.43;8.43;;;;;;;6.68;68.16;96674.00;5023326;28;20041;-76
2024/02/26 07:41:13;;;;;;;8.93;7.38;;;;;;;6.55;68.08;96657.59;5013006;28;20462;-76
2024/02/26 07:43:40;;;;;;;9.20;7.53;;;;;;;6.53;67.54;96647.19;5021193;28;20049;-75
2024/02/26 07:46:06;;;;;;;8.43;7.60;;;;;;;6.64;67.36;96667.56;5011442;28;20029;-76
2024/02/26 07:48:32;;;;;;;10.10;8.02;;;;;;;6.71;67.63;96672.69;5016954;28;20040;-76
2024/02/26 07:50:58;;;;;;;8.70;7.75;;;;;;;6.63;67.21;96655.25;5022774;28;20025;-76
2024/02/26 07:53:24;;;;;;;9.20;8.00;;;;;;;6.73;67.12;96666.03;5021556;28;20049;-76
2024/02/26 07:55:49;;;;;;;11.98;9.02;;;;;;;6.75;67.84;96658.53;5020496;28;20025;-76
2024/02/26 07:58:15;;;;;;;9.27;8.30;;;;;;;6.74;66.80;96656.94;5012968;28;20103;-76
2024/02/26 08:00:40;;;;;;;10.30;8.52;;;;;;;6.96;66.79;96687.03;4991291;28;20026;-76
2024/02/26 08:03:05;;;;;;;14.10;11.10;;;;;;;6.96;67.25;96668.31;5020917;28;20469;-76
2024/02/26 08:05:31;;;;;;;10.65;8.77;;;;;;;7.06;67.39;96688.16;5015762;28;20022;-76
2024/02/26 08:07:56;;;;;;;9.77;7.82;;;;;;;6.98;66.75;96652.78;4997363;28;20489;-76
2024/02/26 08:10:21;;;;;;;8.95;7.75;;;;;;;7.08;66.30;96670.78;5004422;28;20021;-76
2024/02/26 08:12:47;;;;;;;9.30;7.60;;;;;;;7.24;66.72;96690.41;4996072;28;20087;-76
2024/02/26 08:15:12;;;;;;;7.82;7.03;;;;;;;7.31;65.95;96696.34;5030916;28;20064;-76
2024/02/26 08:17:38;;;;;;;9.25;7.53;;;;;;;7.28;65.92;96686.16;5006982;28;20409;-76
2024/02/26 08:20:04;;;;;;;7.82;7.03;;;;;;;7.47;66.54;96698.00;5022603;28;20500;-78
2024/02/26 08:22:30;;;;;;;8.27;7.28;;;;;;;7.35;65.43;96673.34;5018649;28;20365;-76
2024/02/26 08:24:55;;;;;;;8.20;7.40;;;;;;;7.36;64.81;96677.63;5018215;28;20033;-75
2024/02/26 08:27:21;;;;;;;10.13;7.93;;;;;;;7.47;65.47;96692.66;5011028;28;20124;-76
2024/02/26 08:29:46;;;;;;;8.57;7.70;;;;;;;7.41;64.78;96666.94;5001792;28;20018;-76
2024/02/26 08:32:12;;;;;;;8.23;7.43;;;;;;;7.49;64.31;96693.22;5016269;28;20064;-76
2024/02/26 08:34:37;;;;;;;8.57;7.55;;;;;;;7.63;65.70;96700.50;5012068;28;20065;-76
2024/02/26 08:37:02;;;;;;;8.77;7.88;;;;;;;7.71;65.19;96707.22;5027883;28;20037;-76
2024/02/26 08:39:28;;;;;;;9.10;7.57;;;;;;;7.71;65.37;96703.75;5005681;28;20033;-76
2024/02/26 08:41:54;;;;;;;8.93;8.02;;;;;;;7.67;64.88;96695.44;5027189;28;20033;-76
2024/02/26 08:44:19;;;;;;;8.48;7.55;;;;;;;7.79;64.31;96716.66;4987128;28;20030;-77
2024/02/26 08:46:45;;;;;;;8.75;7.40;;;;;;;7.77;64.63;96708.84;5015910;28;20124;-76
2024/02/26 08:49:11;;;;;;;8.77;7.93;;;;;;;7.76;64.47;96701.91;4995812;28;20105;-76
2024/02/26 08:51:41;;;;;;;8.63;7.25;;;;;;;7.86;64.28;96701.94;5022294;28;20120;-76
2024/02/26 08:54:06;;;;;;;8.05;7.05;;;;;;;7.87;64.02;96695.50;5000381;28;20453;-76
2024/02/26 08:56:32;;;;;;;8.95;8.05;;;;;;;8.05;64.07;96708.41;5007274;28;20040;-76
2024/02/26 08:58:59;;;;;;;7.72;6.93;;;;;;;7.95;63.79;96700.34;5008539;28;20053;-76
2024/02/26 09:01:24;;;;;;;9.77;7.43;;;;;;;8.05;64.00;96703.03;5019105;28;20018;-75
2024/02/26 09:03:50;;;;;;;8.77;7.43;;;;;;;8.17;64.28;96714.31;4983952;28;20041;-75
2024/02/26 09:06:15;;;;;;;8.02;7.07;;;;;;;8.28;63.28;96720.56;5003135;28;20080;-76
2024/02/26 09:08:40;;;;;;;8.40;6.95;;;;;;;8.43;62.92;96722.44;4993035;28;20129;-76
2024/02/26 09:11:06;;;;;;;11.10;8.90;;;;;;;8.47;62.42;96728.91;5026524;28;20068;-76
2024/02/26 09:13:31;;;;;;;7.93;7.13;;;;;;;8.41;62.91;96703.13;5025207;28;20116;-75
2024/02/26 09:15:58;;;;;;;8.38;7.18;;;;;;;8.52;62.65;96710.13;4996198;28;20036;-76
2024/02/26 09:18:24;;;;;;;7.95;7.15;;;;;;;8.59;62.25;96711.47;5002166;28;20124;-75
2024/02/26 09:20:50;;;;;;;7.78;6.97;;;;;;;8.63;62.08;96709.06;5024572;28;20092;-76
2024/02/26 09:23:15;;;;;;;7.18;6.45;;;;;;;8.66;62.72;96724.63;5020872;28;20634;-76
2024/02/26 09:25:41;;;;;;;8.15;7.22;;;;;;;8.82;61.69;96726.25;5016256;28;20026;-76
2024/02/26 09:28:06;;;;;;;7.70;6.90;;;;;;;8.77;61.98;96719.00;5012732;28;20037;-76
2024/02/26 09:30:31;;;;;;;7.93;7.13;;;;;;;8.79;61.93;96711.47;5007077;28;20025;-76
2024/02/26 09:32:57;;;;;;;8.25;7.20;;;;;;;8.95;61.67;96736.41;5023917;28;20120;-76
2024/02/26 09:35:22;;;;;;;7.40;6.70;;;;;;;8.92;61.50;96715.47;5015827;28;20025;-76
2024/02/26 09:37:49;;;;;;;7.78;6.68;;;;;;;9.11;61.27;96732.66;5013128;28;20037;-76
2024/02/26 09:40:15;;;;;;;7.70;6.15;;;;;;;9.11;60.67;96721.91;5013380;28;20026;-76
2024/02/26 09:42:53;;;;;;;7.88;6.75;;;;;;;9.16;60.35;96715.72;5010999;28;20044;-76
2024/02/26 09:45:19;;;;;;;7.47;6.78;;;;;;;9.12;60.22;96715.47;5019960;28;20042;-75
2024/02/26 09:47:47;;;;;;;7.25;6.50;;;;;;;9.17;60.25;96728.88;5006733;28;20049;-76
2024/02/26 09:50:14;;;;;;;6.60;5.90;;;;;;;9.22;60.09;96733.44;5013434;28;20029;-76
2024/02/26 09:52:41;;;;;;;7.05;6.35;;;;;;;9.18;60.02;96714.38;5013216;28;20060;-76
2024/02/26 09:55:09;;;;;;;7.18;6.30;;;;;;;9.22;59.90;96726.19;5007395;28;20033;-76
2024/02/26 09:57:36;;;;;;;7.50;6.13;;;;;;;9.35;60.10;96736.38;5009390;28;20037;-76
2024/02/26 10:00:05;;;;;;;7.07;6.38;;;;;;;9.39;60.34;96732.06;5010713;28;20034;-76
2024/02/26 10:02:33;;;;;;;7.35;6.45;;;;;;;9.38;59.59;96719.69;4990309;28;20028;-76
2024/02/26 10:05:01;;;;;;;7.65;6.32;;;;;;;9.56;59.71;96724.50;5010493;28;20041;-76
2024/02/26 10:07:29;;;;;;;6.80;6.20;;;;;;;9.62;59.18;96731.44;4994406;28;20030;-76
2024/02/26 10:09:55;;;;;;;7.07;6.20;;;;;;;9.57;58.93;96723.41;5001281;28;20448;-76
2024/02/26 10:12:20;;;;;;;8.52;6.28;;;;;;;9.61;58.70;96724.44;5018488;28;20029;-76
2024/02/26 10:14:46;;;;;;;7.50;6.30;;;;;;;9.74;58.81;96731.94;4997313;28;20029;-76
2024/02/26 10:17:11;;;;;;;6.53;5.90;;;;;;;9.73;58.54;96727.63;5016262;28;20021;-76
2024/02/26 10:19:37;;;;;;;7.15;6.45;;;;;;;9.68;58.66;96724.19;5026772;28;20033;-76
2024/02/26 10:22:04;;;;;;;7.65;6.40;;;;;;;9.86;58.81;96725.44;4999907;28;20021;-76
2024/02/26 10:24:30;;;;;;;6.95;6.00;;;;;;;9.91;59.00;96728.13;5015213;28;20549;-76
2024/02/26 10:26:56;;;;;;;7.47;6.30;;;;;;;10.06;58.71;96746.88;5022254;28;20116;-75
2024/02/26 10:29:23;;;;;;;6.45;5.85;;;;;;;10.04;58.61;96732.88;4996287;28;20116;-76
2024/02/26 10:31:48;;;;;;;6.43;5.68;;;;;;;10.03;58.12;96720.53;5014816;28;20140;-76
2024/02/26 10:34:17;;;;;;;6.57;5.88;;;;;;;10.14;57.67;96716.75;5017797;28;20497;-76
2024/02/26 10:36:43;;;;;;;6.13;5.30;;;;;;;10.10;56.77;96712.97;5000389;28;20032;-76
2024/02/26 10:39:09;;;;;;;7.80;5.82;;;;;;;10.29;56.61;96738.97;5016639;28;20545;-76
2024/02/26 10:41:35;;;;;;;7.22;6.20;;;;;;;10.19;56.98;96722.91;5001892;28;20168;-76
2024/02/26 10:44:00;;;;;;;6.10;5.28;;;;;;;10.32;56.87;96726.84;5003967;28;20124;-76
2024/02/26 10:46:26;;;;;;;6.05;5.45;;;;;;;10.21;55.51;96693.03;4991200;28;20021;-76
2024/02/26 10:48:52;;;;;;;5.78;5.18;;;;;;;10.57;55.18;96747.44;4999975;28;20063;-76
2024/02/26 10:51:21;;;;;;;5.97;4.85;;;;;;;10.64;55.40;96743.31;5001447;28;20120;-76
2024/02/26 10:53:47;;;;;;;6.72;5.00;;;;;;;10.63;54.79;96735.53;4984885;28;20405;-76
2024/02/26 10:56:14;;;;;;;6.93;5.63;;;;;;;10.70;54.81;96744.91;5017230;28;20030;-76
2024/02/26 10:58:41;;;;;;;6.60;5.57;;;;;;;10.63;55.38;96720.19;5016665;28;20029;-76
2024/02/26 11:01:07;;;;;;;5.90;5.22;;;;;;;10.81;56.00;96738.34;5016283;28;20030;-75
2024/02/26 11:03:34;;;;;;;7.18;5.50;;;;;;;10.72;56.14;96721.19;4998492;28;20037;-76
2024/02/26 11:06:00;;;;;;;8.68;5.60;;;;;;;10.81;56.52;96727.56;5017241;28;20124;-76
2024/02/26 11:08:26;;;;;;;5.80;5.05;;;;;;;10.77;55.88;96720.34;5026230;28;20400;-75
2024/02/26 11:10:55;;;;;;;5.43;4.93;;;;;;;10.69;55.83;96720.97;5007677;28;20013;-76
2024/02/26 11:13:21;;;;;;;5.53;5.00;;;;;;;10.76;55.37;96719.53;5000609;28;20052;-75
2024/02/26 11:15:48;;;;;;;6.22;5.38;;;;;;;10.85;55.88;96731.31;5013664;28;20029;-76
2024/02/26 11:18:15;;;;;;;5.47;4.97;;;;;;;10.78;56.35;96711.97;5022785;28;20045;-76
2024/02/26 11:20:41;;;;;;;5.88;5.28;;;;;;;10.78;56.54;96711.97;5001191;28;20018;-76
2024/02/26 11:23:07;;;;;;;5.45;4.50;;;;;;;10.94;56.29;96732.34;5006758;28;20044;-76
2024/02/26 11:25:32;;;;;;;6.45;5.18;;;;;;;10.78;56.01;96690.44;5018660;28;20029;-76
2024/02/26 11:28:04;;;;;;;5.20;4.70;;;;;;;10.99;55.67;96718.03;5016895;28;20037;-76
2024/02/26 11:30:32;;;;;;;6.55;4.95;;;;;;;11.15;55.88;96716.78;5019663;28;20029;-75
2024/02/26 11:32:58;;;;;;;9.10;4.50;;;;;;;11.36;55.44;96731.69;5003093;28;20022;-75
2024/02/26 11:35:23;;;;;;;4.50;4.10;;;;;;;11.46;55.75;96728.06;5009366;28;20029;-75